Hovedside
METAR-TAF:

METAR-TAF

Lufthavner :

Kuusamo, Finland

Kuusamo lufthavn

breddegrad: 65-58N, lengdegrad: 029-11E, høyde over havet: 262 m

Gjeldene værobservasjon

Denne rapporten ble laget for 22 minutter siden, klokken 19:50 UTC
Vind 7 kt fra Øst-nordøst, skiftende mellom Nord-nordøst og Øst
Temperatur 0°C
Luftfuktighet 100%
Trykk 1003 hPa
Sikt: 4300 m
Overskyet i en høyde av 400 ft
lett regn

METAR: EFKS 281950Z AUTO 07007KT 030V100 4300 -RA OVC004 00/00 Q1003

Tid: 23:12 (20:12 UTC)

Varsel

Denne rapporten ble laget for 3 timer og 46 minutter siden, klokken 16:26 UTC
Varsel gyldig fra 28. klokken 16 UTC til 28. klokken 19 UTC
Vind 8 kt fra Øst
Sikt: 8000 m
Brutte skyer i en høyde av 800 ft
lett regn
Midlertidig
fra 28. klokken 16 UTC til 28. klokken 19 UTC
Sikt: 2500 m
Brutte skyer i en høyde av 300 ft
regn, snø

TAF: EFKS 281626Z 2816/2819 09008KT 8000 -RA BKN008 TEMPO 2816/2819 2500 RASN BKN003

Værobservasjoner og værvarsel for over 4000 flyplasser (METAR- og TAF-rapporter).

Tilgjengelige stasjoner er representert av de røde og gule prikkene på kartet.

Hold musepekeren over prikken for å se navnet på stasjonen.

Klikk så for å se værobservasjoner og -varsler.

For å forandre kartet kan du klikke på den grønne knappen med svart kryss for å zoome inn, på den grønne knappen med strek for å zoome ut, eller på de grønne pilene for å se tilstøtende kart.


METAR-TAF: